Macksburg, Iowa
Current Conditions -  °F | °C
As of 8:35 AM on Wednesday 22 Oct 2014 (Local Time) from KCSQ Reporting Station
Overcast Overcast  
Wind Chill: 43°   Ceiling: 3700
Heat Index: 48°   Visibility: 10mi
Dew Point: 41°   Wind: 13mph
Humidity: 76%   Direction: 140°SE
Pressure: 30.2"   Gusts: 21mph
Location:  41.21°N, 94.19°W
Report Text: KCSQ 221335Z AUTO 14011G18KT 10SM OVC037 09/05 A3020 RMK AO2
Loading
Personal Weather Stations






























Interactive Weather Map
Tropical Storm Tracking
New forecast layout! Learn more

10-Day Weather Forecast

Advertisements
Track Severe Weather on mobile